createdAt,value
2023-05-06T00:00:51.593Z,83.30
2023-05-06T00:03:19.983Z,83.30
2023-05-06T00:05:49.789Z,83.30
2023-05-06T00:08:18.490Z,83.20
2023-05-06T00:10:48.248Z,83.10
2023-05-06T00:13:16.739Z,83.00
2023-05-06T00:15:45.142Z,83.00
2023-05-06T00:18:15.160Z,82.90
2023-05-06T00:20:44.017Z,83.00
2023-05-06T00:23:12.582Z,82.80
2023-05-06T00:25:40.952Z,83.60
2023-05-06T00:28:10.762Z,82.70
2023-05-06T00:30:39.082Z,82.70
2023-05-06T00:33:07.396Z,82.70
2023-05-06T00:35:35.642Z,82.60
2023-05-06T00:38:10.945Z,82.60
2023-05-06T00:40:39.563Z,82.50
2023-05-06T00:43:07.986Z,82.50
2023-05-06T00:45:37.846Z,82.40
2023-05-06T00:48:07.820Z,82.40
2023-05-06T00:50:36.975Z,82.50
2023-05-06T00:53:06.773Z,82.20
2023-05-06T00:55:35.104Z,82.20
2023-05-06T00:58:04.089Z,82.20
2023-05-06T01:00:32.375Z,82.10
2023-05-06T01:03:02.231Z,82.10
2023-05-06T01:05:34.683Z,82.00
2023-05-06T01:08:11.853Z,82.00
2023-05-06T01:10:47.757Z,81.90
2023-05-06T01:13:22.748Z,82.70
2023-05-06T01:15:55.778Z,81.90
2023-05-06T01:18:28.358Z,81.80
2023-05-06T01:20:57.953Z,81.90
2023-05-06T01:23:27.652Z,81.90
2023-05-06T01:25:55.999Z,82.00
2023-05-06T01:28:24.276Z,82.00
2023-05-06T01:30:59.042Z,82.70
2023-05-06T01:33:35.910Z,81.90
2023-05-06T01:36:11.324Z,81.90
2023-05-06T01:38:47.181Z,81.80
2023-05-06T01:41:18.433Z,82.60
2023-05-06T01:43:49.368Z,81.80
2023-05-06T01:46:20.577Z,81.80
2023-05-06T01:48:54.020Z,81.70
2023-05-06T01:51:22.636Z,81.70
2023-05-06T01:53:52.282Z,81.60
2023-05-06T01:56:20.486Z,81.70
2023-05-06T01:58:48.756Z,81.70
2023-05-06T02:01:17.046Z,81.70
2023-05-06T02:03:45.520Z,81.70
2023-05-06T02:06:13.802Z,81.90
2023-05-06T02:08:42.089Z,81.90
2023-05-06T02:11:11.808Z,81.90
2023-05-06T02:13:40.092Z,81.90
2023-05-06T02:16:09.003Z,81.90
2023-05-06T02:18:37.526Z,81.90
2023-05-06T02:21:06.008Z,82.10
2023-05-06T02:23:34.265Z,81.90
2023-05-06T02:26:02.722Z,81.90
2023-05-06T02:28:32.459Z,82.00
2023-05-06T02:31:00.759Z,82.00
2023-05-06T02:33:29.130Z,82.20
2023-05-06T02:35:57.476Z,82.30
2023-05-06T02:38:26.180Z,82.20
2023-05-06T02:40:54.492Z,82.30
2023-05-06T02:43:23.170Z,82.20
2023-05-06T02:45:53.051Z,82.30
2023-05-06T02:48:21.427Z,82.30
2023-05-06T02:50:49.752Z,82.30
2023-05-06T02:53:17.955Z,82.40
2023-05-06T02:55:46.624Z,82.30
2023-05-06T02:58:14.899Z,82.40
2023-05-06T03:00:43.185Z,82.40
2023-05-06T03:03:12.867Z,82.50
2023-05-06T03:05:41.236Z,82.50
2023-05-06T03:08:09.640Z,82.70
2023-05-06T03:10:37.870Z,82.70
2023-05-06T03:13:06.178Z,83.60
2023-05-06T03:15:35.097Z,82.80
2023-05-06T03:18:03.351Z,82.90
2023-05-06T03:20:33.101Z,82.90
2023-05-06T03:23:01.556Z,82.90
2023-05-06T03:25:30.399Z,83.00
2023-05-06T03:27:58.657Z,83.10
2023-05-06T03:30:26.944Z,83.10
2023-05-06T03:32:57.185Z,83.10
2023-05-06T03:35:25.549Z,83.30
2023-05-06T03:37:56.721Z,83.30
2023-05-06T03:40:25.118Z,83.30
2023-05-06T03:42:53.399Z,83.50
2023-05-06T03:45:21.804Z,83.40
2023-05-06T03:47:50.206Z,83.40
2023-05-06T03:50:18.720Z,83.40
2023-05-06T03:52:47.070Z,83.40
2023-05-06T03:55:16.809Z,83.40
2023-05-06T03:57:45.066Z,83.40
2023-05-06T04:00:14.341Z,83.50
2023-05-06T04:02:43.672Z,83.40
2023-05-06T04:05:12.291Z,83.40
2023-05-06T04:07:40.707Z,83.40
2023-05-06T04:10:10.311Z,83.40
2023-05-06T04:12:39.982Z,83.60
2023-05-06T04:15:09.602Z,83.50
2023-05-06T04:17:38.111Z,83.50
2023-05-06T04:20:08.171Z,83.40
2023-05-06T04:22:36.426Z,83.40
2023-05-06T04:25:05.234Z,83.40
2023-05-06T04:27:33.650Z,83.40
2023-05-06T04:30:03.309Z,83.40
2023-05-06T04:32:31.949Z,83.50
2023-05-06T04:35:00.350Z,83.50
2023-05-06T04:37:28.616Z,83.50
2023-05-06T04:39:57.214Z,83.50
2023-05-06T04:42:25.622Z,83.50
2023-05-06T04:44:53.869Z,83.60
2023-05-06T04:47:23.636Z,83.50
2023-05-06T04:49:51.938Z,83.30
2023-05-06T04:52:20.120Z,83.30
2023-05-06T04:54:50.724Z,83.30
2023-05-06T04:57:19.139Z,83.00
2023-05-06T04:59:47.492Z,82.90
2023-05-06T05:02:18.692Z,82.90
2023-05-06T05:04:48.446Z,82.60
2023-05-06T05:07:16.830Z,81.60
2023-05-06T05:09:45.520Z,81.60
2023-05-06T05:12:15.254Z,81.90
2023-05-06T05:14:46.447Z,81.50
2023-05-06T05:17:14.778Z,81.50
2023-05-06T05:19:49.296Z,81.40
2023-05-06T05:22:21.620Z,81.50
2023-05-06T05:24:49.851Z,80.50
2023-05-06T05:27:18.145Z,80.50
2023-05-06T05:29:46.440Z,80.00
2023-05-06T05:32:14.864Z,79.70
2023-05-06T05:34:43.223Z,79.80
2023-05-06T05:37:11.513Z,79.60
2023-05-06T05:39:41.341Z,77.80
2023-05-06T05:42:09.559Z,78.10
2023-05-06T05:44:37.815Z,78.20
2023-05-06T05:47:06.661Z,76.80
2023-05-06T05:49:37.918Z,76.90
2023-05-06T05:52:07.385Z,77.20
2023-05-06T05:54:43.111Z,76.50
2023-05-06T05:57:13.013Z,76.60
2023-05-06T05:59:41.347Z,76.70
2023-05-06T06:02:09.789Z,76.10
2023-05-06T06:04:38.086Z,76.10
2023-05-06T06:07:06.957Z,76.00
2023-05-06T06:09:36.110Z,76.30
2023-05-06T06:12:06.841Z,75.20
2023-05-06T06:14:36.671Z,74.70
2023-05-06T06:17:08.025Z,75.10
2023-05-06T06:19:36.280Z,74.70
2023-05-06T06:22:04.540Z,74.50
2023-05-06T06:24:36.470Z,74.50
2023-05-06T06:27:04.848Z,74.70
2023-05-06T06:29:33.389Z,74.90
2023-05-06T06:32:04.393Z,74.50
2023-05-06T06:34:32.820Z,72.60
2023-05-06T06:37:01.460Z,72.90
2023-05-06T06:39:29.744Z,73.10
2023-05-06T06:41:58.568Z,73.60
2023-05-06T06:44:27.006Z,73.40
2023-05-06T06:46:56.945Z,73.80
2023-05-06T06:49:27.211Z,73.90
2023-05-06T06:51:56.898Z,73.30
2023-05-06T06:54:25.494Z,73.20
2023-05-06T06:56:56.331Z,72.00
2023-05-06T06:59:24.669Z,72.20
2023-05-06T07:01:52.958Z,72.80
2023-05-06T07:04:21.415Z,72.40
2023-05-06T07:06:51.088Z,72.90
2023-05-06T07:09:19.451Z,72.90
2023-05-06T07:11:47.746Z,71.80
2023-05-06T07:14:15.959Z,71.40
2023-05-06T07:16:46.420Z,71.90
2023-05-06T07:19:15.500Z,72.30
2023-05-06T07:21:43.803Z,70.90
2023-05-06T07:24:13.424Z,71.00
2023-05-06T07:26:41.845Z,70.70
2023-05-06T07:29:10.088Z,70.80
2023-05-06T07:31:38.557Z,70.50
2023-05-06T07:34:07.886Z,70.50
2023-05-06T07:36:40.670Z,69.90
2023-05-06T07:39:09.377Z,69.70
2023-05-06T07:41:39.305Z,67.70
2023-05-06T07:44:07.554Z,66.60
2023-05-06T07:46:35.940Z,66.90
2023-05-06T07:49:04.466Z,67.10
2023-05-06T07:51:33.055Z,67.20
2023-05-06T07:54:01.421Z,67.50
2023-05-06T07:56:29.729Z,68.30
2023-05-06T07:59:00.055Z,68.40
2023-05-06T08:01:29.718Z,68.90
2023-05-06T08:03:58.128Z,69.10
2023-05-06T08:06:26.537Z,67.10
2023-05-06T08:08:57.833Z,66.20
2023-05-06T08:11:28.594Z,65.30
2023-05-06T08:13:58.232Z,65.10
2023-05-06T08:16:26.480Z,64.70
2023-05-06T08:18:54.912Z,64.40
2023-05-06T08:21:23.153Z,65.10
2023-05-06T08:23:54.160Z,65.80
2023-05-06T08:26:22.387Z,66.30
2023-05-06T08:28:50.634Z,66.50
2023-05-06T08:31:20.378Z,66.20
2023-05-06T08:33:48.703Z,65.20
2023-05-06T08:36:17.861Z,65.00
2023-05-06T08:38:50.686Z,65.00
2023-05-06T08:41:21.378Z,64.60
2023-05-06T08:43:55.250Z,64.60
2023-05-06T08:46:25.233Z,63.90
2023-05-06T08:48:54.435Z,62.30
2023-05-06T08:51:26.060Z,62.90
2023-05-06T08:53:56.536Z,62.90
2023-05-06T08:56:30.194Z,62.70
2023-05-06T08:58:59.789Z,62.40
2023-05-06T09:01:30.221Z,61.60
2023-05-06T09:03:59.301Z,59.90
2023-05-06T09:06:27.572Z,58.90
2023-05-06T09:08:58.858Z,59.40
2023-05-06T09:11:29.484Z,60.10
2023-05-06T09:14:12.068Z,60.70
2023-05-06T09:16:43.897Z,61.00
2023-05-06T09:19:12.561Z,60.10
2023-05-06T09:21:42.703Z,61.40
2023-05-06T09:24:12.455Z,60.50
2023-05-06T09:26:45.867Z,59.90
2023-05-06T09:29:14.378Z,59.50
2023-05-06T09:31:45.481Z,58.90
2023-05-06T09:34:14.479Z,59.20
2023-05-06T09:36:43.024Z,58.00
2023-05-06T09:39:11.580Z,58.60
2023-05-06T09:41:40.055Z,58.90
2023-05-06T09:44:08.470Z,58.80
2023-05-06T09:46:37.420Z,58.40
2023-05-06T09:49:07.778Z,58.30
2023-05-06T09:51:36.118Z,58.50
2023-05-06T09:54:05.476Z,58.10
2023-05-06T09:56:35.330Z,57.80
2023-05-06T09:59:05.183Z,57.70
2023-05-06T10:01:37.592Z,58.30
2023-05-06T10:04:11.050Z,58.70
2023-05-06T10:06:41.605Z,58.70
2023-05-06T10:09:10.356Z,57.60
2023-05-06T10:11:39.926Z,57.20
2023-05-06T10:14:09.284Z,57.70
2023-05-06T10:16:40.162Z,57.60
2023-05-06T10:19:10.543Z,57.20
2023-05-06T10:21:41.520Z,57.00
2023-05-06T10:24:14.677Z,56.70
2023-05-06T10:26:48.282Z,56.90
2023-05-06T10:29:16.778Z,57.00
2023-05-06T10:31:50.574Z,56.90
2023-05-06T10:34:22.377Z,56.50
2023-05-06T10:36:56.709Z,55.50
2023-05-06T10:39:25.708Z,55.70
2023-05-06T10:41:54.187Z,55.60
2023-05-06T10:44:55.369Z,54.40
2023-05-06T10:47:23.597Z,54.20
2023-05-06T10:50:24.278Z,52.00
2023-05-06T10:52:55.466Z,53.20
2023-05-06T10:55:28.306Z,53.50
2023-05-06T10:57:57.716Z,53.50
2023-05-06T11:00:26.479Z,53.70
2023-05-06T11:02:58.832Z,54.40
2023-05-06T11:05:28.855Z,53.60
2023-05-06T11:08:11.095Z,53.70
2023-05-06T11:10:39.596Z,53.60
2023-05-06T11:13:21.837Z,52.20
2023-05-06T11:15:52.138Z,52.60
2023-05-06T11:18:43.238Z,52.90
2023-05-06T11:21:43.676Z,53.10
2023-05-06T11:24:13.906Z,53.50
2023-05-06T11:26:45.502Z,53.10
2023-05-06T11:29:16.319Z,52.10
2023-05-06T11:31:45.873Z,50.50
2023-05-06T11:34:19.995Z,51.20
2023-05-06T11:36:56.837Z,51.70
2023-05-06T11:39:25.715Z,51.40
2023-05-06T11:41:54.817Z,50.60
2023-05-06T11:44:30.896Z,50.40
2023-05-06T11:47:00.642Z,50.10
2023-05-06T11:49:29.341Z,50.90
2023-05-06T11:51:59.016Z,51.50
2023-05-06T11:54:28.490Z,50.40
2023-05-06T11:56:58.103Z,50.70
2023-05-06T11:59:33.320Z,51.00
2023-05-06T12:02:03.010Z,51.20
2023-05-06T12:04:39.336Z,49.80
2023-05-06T12:07:10.358Z,49.50
2023-05-06T12:09:39.404Z,49.10
2023-05-06T12:12:09.467Z,49.10
2023-05-06T12:14:38.274Z,49.80
2023-05-06T12:17:07.076Z,49.00
2023-05-06T12:19:36.144Z,49.00
2023-05-06T12:22:19.390Z,48.20
2023-05-06T12:24:48.408Z,47.50
2023-05-06T12:27:29.606Z,48.20
2023-05-06T12:29:58.551Z,47.20
2023-05-06T12:32:27.002Z,47.00
2023-05-06T12:34:56.560Z,47.40
2023-05-06T12:37:30.991Z,47.00
2023-05-06T12:39:59.719Z,47.00
2023-05-06T12:42:28.526Z,46.50
2023-05-06T12:44:57.041Z,46.80
2023-05-06T12:47:26.865Z,45.90
2023-05-06T12:50:08.604Z,47.00
2023-05-06T12:52:45.459Z,47.60
2023-05-06T12:55:14.082Z,48.00
2023-05-06T12:57:42.359Z,48.10
2023-05-06T13:00:12.802Z,47.30
2023-05-06T13:02:41.579Z,47.60
2023-05-06T13:05:10.495Z,47.00
2023-05-06T13:07:40.586Z,46.90
2023-05-06T13:10:09.840Z,47.00
2023-05-06T13:12:38.683Z,46.20
2023-05-06T13:15:19.414Z,46.80
2023-05-06T13:17:48.328Z,46.70
2023-05-06T13:21:00.281Z,46.50
2023-05-06T13:23:43.051Z,46.50
2023-05-06T13:26:11.397Z,46.10
2023-05-06T13:28:39.694Z,45.80
2023-05-06T13:31:08.216Z,45.40
2023-05-06T13:33:37.016Z,44.60
2023-05-06T13:36:06.393Z,45.20
2023-05-06T13:38:36.200Z,44.40
2023-05-06T13:41:04.556Z,45.50
2023-05-06T13:43:32.825Z,45.20
2023-05-06T13:46:01.270Z,45.10
2023-05-06T13:48:29.543Z,44.70
2023-05-06T13:50:57.889Z,44.80
2023-05-06T13:53:26.214Z,44.30
2023-05-06T13:55:55.894Z,44.80
2023-05-06T13:58:27.338Z,44.70
2023-05-06T14:00:55.748Z,44.70
2023-05-06T14:03:23.996Z,44.40
2023-05-06T14:05:52.468Z,44.40
2023-05-06T14:08:20.743Z,44.10
2023-05-06T14:10:49.027Z,44.20
2023-05-06T14:13:18.781Z,44.20
2023-05-06T14:15:47.045Z,43.30
2023-05-06T14:18:15.892Z,43.20
2023-05-06T14:20:44.156Z,43.50
2023-05-06T14:23:12.443Z,43.70
2023-05-06T14:25:43.668Z,43.80
2023-05-06T14:28:12.927Z,42.60
2023-05-06T14:30:59.522Z,42.80
2023-05-06T14:33:44.539Z,41.70
2023-05-06T14:36:20.230Z,41.10
2023-05-06T14:38:48.505Z,40.90
2023-05-06T14:41:16.749Z,41.50
2023-05-06T14:43:45.043Z,42.00
2023-05-06T14:46:15.982Z,41.40
2023-05-06T14:48:47.340Z,41.90
2023-05-06T14:51:15.648Z,41.40
2023-05-06T14:53:44.400Z,41.40
2023-05-06T14:56:12.616Z,41.30
2023-05-06T14:58:40.838Z,42.20
2023-05-06T15:01:09.143Z,41.70
2023-05-06T15:03:38.831Z,40.80
2023-05-06T15:06:07.622Z,41.40
2023-05-06T15:08:36.531Z,41.60
2023-05-06T15:11:04.933Z,40.90
2023-05-06T15:13:33.282Z,41.20
2023-05-06T15:16:01.527Z,40.20
2023-05-06T15:18:29.901Z,40.20
2023-05-06T15:21:01.566Z,39.80
2023-05-06T15:23:30.029Z,40.40
2023-05-06T15:25:58.907Z,40.20
2023-05-06T15:28:27.250Z,39.40
2023-05-06T15:30:55.574Z,40.10
2023-05-06T15:33:24.123Z,40.50
2023-05-06T15:35:54.277Z,40.40
2023-05-06T15:38:24.004Z,40.20
2023-05-06T15:40:53.420Z,39.80
2023-05-06T15:43:24.114Z,40.20
2023-05-06T15:45:53.084Z,41.00
2023-05-06T15:48:21.510Z,40.50
2023-05-06T15:50:49.854Z,39.70
2023-05-06T15:53:22.684Z,39.90
2023-05-06T15:55:57.176Z,40.10
2023-05-06T15:58:32.394Z,40.10
2023-05-06T16:01:00.741Z,39.60
2023-05-06T16:03:29.277Z,40.30
2023-05-06T16:05:58.877Z,40.40
2023-05-06T16:08:27.183Z,40.40
2023-05-06T16:10:56.785Z,40.10
2023-05-06T16:13:25.422Z,41.00
2023-05-06T16:15:54.013Z,40.90
2023-05-06T16:18:22.427Z,40.90
2023-05-06T16:20:50.694Z,41.40
2023-05-06T16:23:19.941Z,41.60
2023-05-06T16:25:48.259Z,42.40
2023-05-06T16:28:17.853Z,41.70
2023-05-06T16:30:46.472Z,43.10
2023-05-06T16:33:14.825Z,42.30
2023-05-06T16:35:43.163Z,42.10
2023-05-06T16:38:11.430Z,42.20
2023-05-06T16:40:43.697Z,42.60
2023-05-06T16:43:12.262Z,42.80
2023-05-06T16:45:45.316Z,42.90
2023-05-06T16:48:14.198Z,43.40
2023-05-06T16:50:43.165Z,43.30
2023-05-06T16:53:11.524Z,43.60
2023-05-06T16:55:39.915Z,43.50
2023-05-06T16:58:08.177Z,43.70
2023-05-06T17:00:36.433Z,44.40
2023-05-06T17:03:06.238Z,44.50
2023-05-06T17:05:35.461Z,44.20
2023-05-06T17:08:04.552Z,44.70
2023-05-06T17:10:46.620Z,44.50
2023-05-06T17:13:15.170Z,45.00
2023-05-06T17:15:43.673Z,44.70
2023-05-06T17:18:13.640Z,44.40
2023-05-06T17:20:54.222Z,44.50
2023-05-06T17:23:27.095Z,44.40
2023-05-06T17:25:57.982Z,44.40
2023-05-06T17:28:26.277Z,44.60
2023-05-06T17:30:54.508Z,45.20
2023-05-06T17:33:25.847Z,44.90
2023-05-06T17:35:54.295Z,44.80
2023-05-06T17:38:22.656Z,45.00
2023-05-06T17:40:50.950Z,45.30
2023-05-06T17:43:19.339Z,45.30
2023-05-06T17:45:47.568Z,45.20
2023-05-06T17:48:15.885Z,45.60
2023-05-06T17:50:45.814Z,45.20
2023-05-06T17:53:14.095Z,45.50
2023-05-06T17:55:42.231Z,46.10
2023-05-06T17:58:10.558Z,46.00
2023-05-06T18:00:39.041Z,46.40
2023-05-06T18:03:10.474Z,46.20
2023-05-06T18:05:38.777Z,46.50
2023-05-06T18:08:09.599Z,46.50
2023-05-06T18:10:38.132Z,46.50
2023-05-06T18:13:07.173Z,46.60
2023-05-06T18:15:35.557Z,46.60
2023-05-06T18:18:04.108Z,46.80
2023-05-06T18:20:33.278Z,46.90
2023-05-06T18:23:01.558Z,47.30
2023-05-06T18:25:31.325Z,47.40
2023-05-06T18:27:59.629Z,47.50
2023-05-06T18:30:27.863Z,47.70
2023-05-06T18:32:56.877Z,48.50
2023-05-06T18:35:25.355Z,48.20
2023-05-06T18:37:53.621Z,48.10
2023-05-06T18:40:22.117Z,48.20
2023-05-06T18:42:56.613Z,48.40
2023-05-06T18:45:24.884Z,48.50
2023-05-06T18:47:53.245Z,48.40
2023-05-06T18:50:21.688Z,48.60
2023-05-06T18:52:52.345Z,48.70
2023-05-06T18:55:21.864Z,50.10
2023-05-06T18:57:53.532Z,49.30
2023-05-06T19:00:22.560Z,49.00
2023-05-06T19:02:50.944Z,49.20
2023-05-06T19:05:19.347Z,49.50
2023-05-06T19:07:47.621Z,49.50
2023-05-06T19:10:16.264Z,49.60
2023-05-06T19:12:45.592Z,49.50
2023-05-06T19:15:15.233Z,49.70
2023-05-06T19:17:43.650Z,49.60
2023-05-06T19:20:14.382Z,49.70
2023-05-06T19:22:42.782Z,49.80
2023-05-06T19:25:11.992Z,50.20
2023-05-06T19:27:40.552Z,50.20
2023-05-06T19:30:12.916Z,50.30
2023-05-06T19:32:44.753Z,50.40
2023-05-06T19:35:13.502Z,50.40
2023-05-06T19:37:41.836Z,50.50
2023-05-06T19:40:11.247Z,50.50
2023-05-06T19:42:39.613Z,50.50
2023-05-06T19:45:08.792Z,50.70
2023-05-06T19:47:37.439Z,50.70
2023-05-06T19:50:13.644Z,50.80
2023-05-06T19:52:43.550Z,50.90
2023-05-06T19:55:12.828Z,50.80
2023-05-06T19:57:43.459Z,50.80
2023-05-06T20:00:14.146Z,50.90
2023-05-06T20:02:42.581Z,50.90
2023-05-06T20:05:15.172Z,50.90
2023-05-06T20:07:43.637Z,50.80
2023-05-06T20:10:13.681Z,50.80
2023-05-06T20:12:42.259Z,50.90
2023-05-06T20:15:11.748Z,51.00
2023-05-06T20:17:49.424Z,51.20
2023-05-06T20:20:19.449Z,51.50
2023-05-06T20:22:48.577Z,51.60
2023-05-06T20:25:18.806Z,51.70
2023-05-06T20:27:47.379Z,51.70
2023-05-06T20:30:18.786Z,51.80
2023-05-06T20:32:52.087Z,51.80
2023-05-06T20:35:22.104Z,51.80
2023-05-06T20:37:50.835Z,51.90
2023-05-06T20:40:19.323Z,52.00
2023-05-06T20:42:49.242Z,52.10
2023-05-06T20:45:19.888Z,52.30
2023-05-06T20:47:48.192Z,53.10
2023-05-06T20:50:17.547Z,52.60
2023-05-06T20:52:59.797Z,52.60
2023-05-06T20:55:28.147Z,52.80
2023-05-06T20:57:56.536Z,52.80
2023-05-06T21:00:26.741Z,52.90
2023-05-06T21:02:58.038Z,53.10
2023-05-06T21:05:26.879Z,53.20
2023-05-06T21:07:56.809Z,53.40
2023-05-06T21:10:25.168Z,53.50
2023-05-06T21:12:53.708Z,53.70
2023-05-06T21:15:24.188Z,53.90
2023-05-06T21:17:52.618Z,54.50
2023-05-06T21:20:21.160Z,54.50
2023-05-06T21:22:49.641Z,54.60
2023-05-06T21:25:19.508Z,54.60
2023-05-06T21:27:51.026Z,55.00
2023-05-06T21:30:19.395Z,55.00
2023-05-06T21:32:47.622Z,55.00
2023-05-06T21:35:17.788Z,55.40
2023-05-06T21:37:46.145Z,55.50
2023-05-06T21:40:14.722Z,55.40
2023-05-06T21:42:44.425Z,55.80
2023-05-06T21:45:13.792Z,55.70
2023-05-06T21:47:44.122Z,56.40
2023-05-06T21:50:13.284Z,56.50
2023-05-06T21:52:41.740Z,55.90
2023-05-06T21:55:11.427Z,56.00
2023-05-06T21:57:45.300Z,56.00
2023-05-06T22:00:17.187Z,56.60
2023-05-06T22:02:46.321Z,57.20
2023-05-06T22:05:17.610Z,57.10
2023-05-06T22:07:51.776Z,57.00
2023-05-06T22:10:20.262Z,57.10
2023-05-06T22:12:51.455Z,57.60
2023-05-06T22:15:21.245Z,57.70
2023-05-06T22:17:49.596Z,57.90
2023-05-06T22:20:18.162Z,58.10
2023-05-06T22:22:46.472Z,58.20
2023-05-06T22:25:14.995Z,58.40
2023-05-06T22:27:43.481Z,60.40
2023-05-06T22:30:16.153Z,60.50
2023-05-06T22:32:46.065Z,60.40
2023-05-06T22:35:14.617Z,61.10
2023-05-06T22:37:42.860Z,60.90
2023-05-06T22:40:12.419Z,61.30
2023-05-06T22:42:40.674Z,61.60
2023-05-06T22:45:10.980Z,61.10
2023-05-06T22:47:39.480Z,61.00
2023-05-06T22:50:10.121Z,61.30
2023-05-06T22:52:39.048Z,61.20
2023-05-06T22:55:09.863Z,61.20
2023-05-06T22:57:38.391Z,61.10
2023-05-06T23:00:08.772Z,61.40
2023-05-06T23:02:37.343Z,61.30
2023-05-06T23:05:06.628Z,61.30
2023-05-06T23:07:36.401Z,63.00
2023-05-06T23:10:04.699Z,62.10
2023-05-06T23:12:33.930Z,61.90
2023-05-06T23:15:02.444Z,61.90
2023-05-06T23:17:30.928Z,61.60
2023-05-06T23:20:00.080Z,61.60
2023-05-06T23:22:28.375Z,61.40
2023-05-06T23:24:58.077Z,61.30
2023-05-06T23:27:26.545Z,61.30
2023-05-06T23:29:54.769Z,61.30
2023-05-06T23:32:23.019Z,61.30
2023-05-06T23:34:52.541Z,61.30
2023-05-06T23:37:21.073Z,61.40
2023-05-06T23:39:49.348Z,61.50
2023-05-06T23:42:19.171Z,61.60
2023-05-06T23:44:48.244Z,61.60
2023-05-06T23:47:16.578Z,61.60
2023-05-06T23:49:45.014Z,61.90
2023-05-06T23:52:13.781Z,61.90
2023-05-06T23:54:41.973Z,62.10
2023-05-06T23:57:10.626Z,62.10
2023-05-06T23:59:40.271Z,63.20
